createdAt,value
2023-04-10T00:05:16.265Z,102478.47
2023-04-10T00:15:37.655Z,102466.41
2023-04-10T00:25:59.070Z,102452.63
2023-04-10T00:36:20.618Z,102437.97
2023-04-10T00:46:42.250Z,102425.06
2023-04-10T00:57:07.087Z,102408.69
2023-04-10T01:07:43.826Z,102394.91
2023-04-10T01:18:14.282Z,102388.91
2023-04-10T01:28:41.731Z,102385.44
2023-04-10T01:39:03.833Z,102385.47
2023-04-10T01:49:26.417Z,102373.41
2023-04-10T01:59:47.809Z,102357.88
2023-04-10T02:10:15.525Z,102354.44
2023-04-10T02:20:37.386Z,102340.66
2023-04-10T02:30:58.814Z,102332.06
2023-04-10T02:41:20.210Z,102331.19
2023-04-10T02:51:41.555Z,102332.06
2023-04-10T03:02:03.098Z,102320.00
2023-04-10T03:12:24.566Z,102302.78
2023-04-10T03:22:45.947Z,102297.63
2023-04-10T03:33:07.328Z,102281.25
2023-04-10T03:43:29.609Z,102276.94
2023-04-10T03:53:51.402Z,102278.66
2023-04-10T04:04:13.014Z,102280.38
2023-04-10T04:14:34.615Z,102273.50
2023-04-10T04:24:56.061Z,102290.69
2023-04-10T04:35:17.463Z,102289.81
2023-04-10T04:45:38.865Z,102289.81
2023-04-10T04:56:00.267Z,102285.53
2023-04-10T05:06:22.130Z,102282.94
2023-04-10T05:16:43.598Z,102266.63
2023-04-10T05:27:04.953Z,102244.25
2023-04-10T05:37:26.302Z,102250.28
2023-04-10T05:47:47.708Z,102252.03
2023-04-10T05:58:09.114Z,102246.03
2023-04-10T06:08:30.745Z,102240.84
2023-04-10T06:18:52.856Z,102229.59
2023-04-10T06:29:14.511Z,102227.88
2023-04-10T06:39:35.907Z,102202.75
2023-04-10T06:49:57.356Z,102209.50
2023-04-10T07:00:19.310Z,102198.13
2023-04-10T07:10:40.733Z,102197.06
2023-04-10T07:21:02.290Z,102184.69
2023-04-10T07:31:24.029Z,102163.56
2023-04-10T07:41:45.658Z,102145.06
2023-04-10T07:52:07.013Z,102116.97
2023-04-10T08:02:28.616Z,102105.03
2023-04-10T08:12:50.152Z,102087.78
2023-04-10T08:23:19.869Z,102082.78
2023-04-10T08:33:42.373Z,102065.47
2023-04-10T08:44:05.882Z,102036.84
2023-04-10T08:54:33.181Z,102009.31
2023-04-10T09:04:55.331Z,101992.88
2023-04-10T09:15:16.843Z,101966.91
2023-04-10T09:25:41.108Z,101943.16
2023-04-10T09:36:04.108Z,101923.81
2023-04-10T09:46:28.803Z,101901.81
2023-04-10T09:56:50.493Z,101885.41
2023-04-10T10:07:12.726Z,101891.19
2023-04-10T10:17:49.387Z,101859.31
2023-04-10T10:28:12.519Z,101849.28
2023-04-10T10:38:34.416Z,101824.31
2023-04-10T10:48:57.147Z,101798.47
2023-04-10T10:59:18.708Z,101780.25
2023-04-10T11:09:57.304Z,101771.03
2023-04-10T11:20:20.987Z,101734.22
2023-04-10T11:30:42.498Z,101715.19
2023-04-10T11:41:05.382Z,101691.94
2023-04-10T11:51:28.247Z,101682.13
2023-04-10T12:01:54.052Z,101650.97
2023-04-10T12:12:15.500Z,101637.91
2023-04-10T12:22:37.166Z,101604.53
2023-04-10T12:33:00.187Z,101596.72
2023-04-10T12:43:32.278Z,101583.38
2023-04-10T12:53:53.670Z,101553.59
2023-04-10T13:04:15.511Z,101536.06
2023-04-10T13:14:37.620Z,101508.72
2023-04-10T13:24:59.377Z,101481.28
2023-04-10T13:35:21.838Z,101468.88
2023-04-10T13:45:43.249Z,101440.91
2023-04-10T13:56:05.513Z,101422.25
2023-04-10T14:06:27.277Z,101388.41
2023-04-10T14:16:48.651Z,101369.78
2023-04-10T14:27:11.520Z,101357.75
2023-04-10T14:37:34.511Z,101342.38
2023-04-10T14:47:56.349Z,101316.25
2023-04-10T14:58:17.785Z,101302.19
2023-04-10T15:08:39.186Z,101283.31
2023-04-10T15:19:00.663Z,101259.50
2023-04-10T15:29:22.016Z,101245.19
2023-04-10T15:39:43.436Z,101202.34
2023-04-10T15:50:05.084Z,101168.38
2023-04-10T16:00:26.491Z,101167.69
2023-04-10T16:10:47.868Z,101168.13
2023-04-10T16:21:09.261Z,101152.59
2023-04-10T16:31:31.128Z,101142.66
2023-04-10T16:41:52.649Z,101129.28
2023-04-10T16:52:14.007Z,101127.81
2023-04-10T17:02:35.568Z,101105.94
2023-04-10T17:12:57.111Z,101043.53
2023-04-10T17:23:18.525Z,101038.94
2023-04-10T17:33:41.855Z,101017.84
2023-04-10T17:44:05.441Z,101004.94
2023-04-10T17:54:28.669Z,100989.25
2023-04-10T18:04:50.042Z,100977.25
2023-04-10T18:15:11.617Z,100992.00
2023-04-10T18:25:32.976Z,100997.75
2023-04-10T18:35:59.049Z,101005.94
2023-04-10T18:46:20.551Z,100991.34
2023-04-10T18:56:41.985Z,100985.78
2023-04-10T19:07:03.751Z,100994.03
2023-04-10T19:17:25.368Z,101009.22
2023-04-10T19:27:46.781Z,101011.91
2023-04-10T19:38:08.142Z,101002.06
2023-04-10T19:48:29.609Z,100966.28
2023-04-10T19:58:51.006Z,100951.41
2023-04-10T20:09:12.368Z,100962.38
2023-04-10T20:19:33.715Z,100935.19
2023-04-10T20:29:55.129Z,100928.50
2023-04-10T20:40:16.521Z,100900.69
2023-04-10T20:50:42.345Z,100859.47
2023-04-10T21:01:03.853Z,100852.41
2023-04-10T21:11:28.438Z,100826.75
2023-04-10T21:21:49.805Z,100817.28
2023-04-10T21:32:11.531Z,100809.78
2023-04-10T21:42:33.404Z,100796.81
2023-04-10T21:52:54.895Z,100798.75
2023-04-10T22:03:16.326Z,100818.44
2023-04-10T22:13:37.905Z,100794.38
2023-04-10T22:23:59.249Z,100790.16
2023-04-10T22:34:20.732Z,100784.47
2023-04-10T22:44:42.086Z,100765.72
2023-04-10T22:55:04.450Z,100760.31
2023-04-10T23:05:27.171Z,100741.50
2023-04-10T23:15:49.754Z,100704.38
2023-04-10T23:26:14.102Z,100708.66
2023-04-10T23:36:35.506Z,100702.75
2023-04-10T23:46:56.947Z,100703.16
2023-04-10T23:57:18.398Z,100705.91
